LFMN/NCE METAR and TAF weather

Enter ICAO airport designator
Station Type Date Time Source
LFMN METAR 2019/04/18 22:00 UTC NOAA

LFMN 182200Z 33007KT CAVOK 16/03 Q1023 NOSIG


Station Type Date Time Source
LFMN Decoded METAR 2019/04/18 22:00 UTC NOAA

Nice, France (LFMN) 43-39N 007-12E 10M
Apr 18, 2019 - 06:00 PM EDT / 2019.04.18 2200 UTC
Wind: from the NNW (330 degrees) at 8 MPH (7 KT):0
Visibility: greater than 7 mile(s):0
Temperature: 60 F (16 C)
Dew Point: 37 F (3 C)
Relative Humidity: 41%
Pressure (altimeter): 30.21 in. Hg (1023 hPa)
ob: LFMN 182200Z 33007KT CAVOK 16/03 Q1023 NOSIG
cycle: 22

Station Type Date Time Source
LFMN TAF 2019/04/18 21:24 UTC NOAA

TAF LFMN 182000Z 1821/2003 08015KT CAVOK
TEMPO 1821/1823 36010KT
TEMPO 1900/1904 09020G30KT
BECMG 1907/1909 09020G30KT
BECMG 1916/1918 05010KT
BECMG 1920/1922 34010KT

Example: see airport list